Share

Piedmont, KS

5:25 PM CDT on April 24, 2014 (GMT -0500)
HADS FALL RIVER LAKE NEAR FALL RIVER KS US USARMY-COE (MFLLK1) Elev 1020 ft | 37.65 °N, 96.08 °W | Change Station

Current weather conditions updated 25 minutes ago

Clear
Clear
57 °F
Feels Like 57 °F
N
26
Wind Variable Wind from NNE
Gusts 0.0 mph
Sunrise 6:38 AM
Sunset 8:09 PM
Moon Waning Crescent

Tomorrow is forecast to be Much Warmer than today.

Pressure 29.82 in
Visibility 10.0 miles
Clouds Clear
Dew Point 45 °F
Humidity 66%
Rainfall 0.09 in
Snow Depth Not available.
UV 5 out of 16
Pollen 8.80 out of 12
Air Quality Not available.
Flu Activity No Activity
METAR KAAO 242154Z AUTO 01012KT 10SM CLR 18/06 A2984 RMK AO2 PK WND 34031/2101 SLP096 T01830056

More Conditions Fewer Conditions

Pressure 29.82 in
Visibility 10.0 miles
Clouds Clear
Dew Point 45 °F
Humidity 66%
Rainfall 0.09 in
Snow Depth Not available.
UV 5 out of 16
Pollen 8.80 out of 12
Air Quality Not available.
Flu Activity No Activity
METAR KAAO 242154Z AUTO 01012KT 10SM CLR 18/06 A2984 RMK AO2 PK WND 34031/2101 SLP096 T01830056

More Conditions Fewer Conditions

10-Day Weather Forecast

Almanac

Astronomy

Apr. 24, 2014 Rise Set
Actual Time 6:38 AM CDT 8:09 PM CDT
Civil Twilight 6:11 AM CDT 8:37 PM CDT
Nautical Twilight 5:37 AM CDT 9:10 PM CDT
Astronomical Twilight 5:02 AM CDT 9:45 PM CDT
Moon 3:44 AM CDT 3:31 PM CDT
Length of Visible Light 14h 26m
Length of Day
13h 30m
Tomorrow will be 2m 11s longer.
Waning Crescent, 22% of the Moon is Illuminated
Today
Waning Crescent
Apr 29
New
May 6
First Quarter
May 14
Full
May 21
Last Quarter

Today's Extremes

State Highs State Lows

Community

  • Jone Runs Falls
    Jone Runs Falls
  • Easter in Shenandoah National Park
    Easter in Shenandoah National Park
  • Sunset at Apalachicola Bay, Florida
    Sunset at Apalachicola Bay, Florida
  • Clouds mov'n in
    Clouds mov'n in
  • Stacked
    Stacked

WunderPhotos

Upload Photos

1,704,732 photos uploaded!

Nearby

Snow Depth

Station Depth Elevation
No new snow has been reported.

Coastal Water Temperatures

Place Temperature
No Stations Reporting

Earthquake Activity

City Distance Mag. Time & Date
Stillwater, Oklahoma 114 miles 2.8 5:30 PM CDT
2014-04-19
Enid, Oklahoma 105 miles 2.9 1:11 PM CDT
2014-04-19
Perry, Oklahoma 105 miles 4.0 5:43 AM CDT
2014-04-19
Stillwater, Oklahoma 114 miles 2.7 3:40 AM CDT
2014-04-19
Minimum magnitude displayed is 2.5.

Nearby Weather Stations

Station Location Temp. Dew Point Humidity Wind Precip. Elev Updated Type
HADS FALL RIVER LAKE NEAR FALL RIVER KS, Fall River, KS 57 °F 45 °F 66% NNE  at  26 mph 0.00 in / hr 1020 ft 5:00 PM CDT MADIS

Show More Stations Show Fewer Stations

What do you think?

We're not finished. Please let us know what you like, what you don't like, and what you are still missing.